sensor_id;sensor_type;location;lat;lon;timestamp;P1;durP1;ratioP1;P2;durP2;ratioP2
76380;SDS011;65202;52.520;10.528;2023-04-24T00:02:04;1.88;;;1.30;;
76380;SDS011;65202;52.520;10.528;2023-04-24T00:04:33;1.75;;;1.10;;
76380;SDS011;65202;52.520;10.528;2023-04-24T00:07:01;1.20;;;1.10;;
76380;SDS011;65202;52.520;10.528;2023-04-24T00:09:29;2.38;;;1.30;;
76380;SDS011;65202;52.520;10.528;2023-04-24T00:11:56;2.47;;;1.25;;
76380;SDS011;65202;52.520;10.528;2023-04-24T00:14:24;2.17;;;1.40;;
76380;SDS011;65202;52.520;10.528;2023-04-24T00:16:51;2.17;;;1.30;;
76380;SDS011;65202;52.520;10.528;2023-04-24T00:19:18;1.50;;;1.10;;
76380;SDS011;65202;52.520;10.528;2023-04-24T00:21:48;1.38;;;1.13;;
76380;SDS011;65202;52.520;10.528;2023-04-24T00:24:18;1.83;;;1.25;;
76380;SDS011;65202;52.520;10.528;2023-04-24T00:26:46;2.70;;;1.10;;
76380;SDS011;65202;52.520;10.528;2023-04-24T00:29:13;2.65;;;1.17;;
76380;SDS011;65202;52.520;10.528;2023-04-24T00:31:40;1.48;;;1.17;;
76380;SDS011;65202;52.520;10.528;2023-04-24T00:34:07;2.80;;;1.30;;
76380;SDS011;65202;52.520;10.528;2023-04-24T00:36:35;1.10;;;1.00;;
76380;SDS011;65202;52.520;10.528;2023-04-24T00:39:02;3.70;;;1.30;;
76380;SDS011;65202;52.520;10.528;2023-04-24T00:41:30;2.78;;;1.17;;
76380;SDS011;65202;52.520;10.528;2023-04-24T00:43:57;2.05;;;1.30;;
76380;SDS011;65202;52.520;10.528;2023-04-24T00:46:24;1.38;;;1.17;;
76380;SDS011;65202;52.520;10.528;2023-04-24T00:48:52;1.30;;;1.10;;
76380;SDS011;65202;52.520;10.528;2023-04-24T00:51:19;1.90;;;1.30;;
76380;SDS011;65202;52.520;10.528;2023-04-24T00:53:47;3.90;;;1.25;;
76380;SDS011;65202;52.520;10.528;2023-04-24T00:56:14;1.20;;;1.00;;
76380;SDS011;65202;52.520;10.528;2023-04-24T00:58:42;1.77;;;1.20;;
76380;SDS011;65202;52.520;10.528;2023-04-24T01:01:10;3.72;;;1.20;;
76380;SDS011;65202;52.520;10.528;2023-04-24T01:03:38;2.35;;;1.15;;
76380;SDS011;65202;52.520;10.528;2023-04-24T01:06:07;1.30;;;1.02;;
76380;SDS011;65202;52.520;10.528;2023-04-24T01:08:36;1.40;;;1.20;;
76380;SDS011;65202;52.520;10.528;2023-04-24T01:11:05;1.85;;;1.10;;
76380;SDS011;65202;52.520;10.528;2023-04-24T01:13:32;3.22;;;1.58;;
76380;SDS011;65202;52.520;10.528;2023-04-24T01:16:01;5.07;;;1.40;;
76380;SDS011;65202;52.520;10.528;2023-04-24T01:18:28;2.90;;;1.27;;
76380;SDS011;65202;52.520;10.528;2023-04-24T01:20:59;2.63;;;1.25;;
76380;SDS011;65202;52.520;10.528;2023-04-24T01:23:30;3.35;;;1.10;;
76380;SDS011;65202;52.520;10.528;2023-04-24T01:25:57;1.63;;;1.40;;
76380;SDS011;65202;52.520;10.528;2023-04-24T01:28:25;2.65;;;1.30;;
76380;SDS011;65202;52.520;10.528;2023-04-24T01:30:52;1.55;;;1.08;;
76380;SDS011;65202;52.520;10.528;2023-04-24T01:33:20;2.45;;;1.20;;
76380;SDS011;65202;52.520;10.528;2023-04-24T01:35:49;1.23;;;1.13;;
76380;SDS011;65202;52.520;10.528;2023-04-24T01:38:17;2.72;;;1.38;;
76380;SDS011;65202;52.520;10.528;2023-04-24T01:40:44;1.27;;;1.02;;
76380;SDS011;65202;52.520;10.528;2023-04-24T01:43:12;1.55;;;1.33;;
76380;SDS011;65202;52.520;10.528;2023-04-24T01:45:40;1.40;;;1.10;;
76380;SDS011;65202;52.520;10.528;2023-04-24T01:48:07;1.50;;;1.10;;
76380;SDS011;65202;52.520;10.528;2023-04-24T01:50:34;2.83;;;1.27;;
76380;SDS011;65202;52.520;10.528;2023-04-24T01:53:01;2.20;;;1.30;;
76380;SDS011;65202;52.520;10.528;2023-04-24T01:55:29;1.95;;;1.45;;
76380;SDS011;65202;52.520;10.528;2023-04-24T01:57:56;2.65;;;1.30;;
76380;SDS011;65202;52.520;10.528;2023-04-24T02:00:26;2.90;;;1.42;;
76380;SDS011;65202;52.520;10.528;2023-04-24T02:02:53;2.95;;;1.60;;
76380;SDS011;65202;52.520;10.528;2023-04-24T02:05:20;3.33;;;1.45;;
76380;SDS011;65202;52.520;10.528;2023-04-24T02:07:48;1.35;;;1.23;;
76380;SDS011;65202;52.520;10.528;2023-04-24T02:10:15;6.93;;;3.83;;
76380;SDS011;65202;52.520;10.528;2023-04-24T02:12:42;4.72;;;2.70;;
76380;SDS011;65202;52.520;10.528;2023-04-24T02:15:09;2.78;;;2.13;;
76380;SDS011;65202;52.520;10.528;2023-04-24T02:17:38;3.65;;;1.70;;
76380;SDS011;65202;52.520;10.528;2023-04-24T02:20:06;3.58;;;1.90;;
76380;SDS011;65202;52.520;10.528;2023-04-24T02:22:34;2.25;;;1.70;;
76380;SDS011;65202;52.520;10.528;2023-04-24T02:25:01;3.03;;;1.60;;
76380;SDS011;65202;52.520;10.528;2023-04-24T02:27:29;2.17;;;1.40;;
76380;SDS011;65202;52.520;10.528;2023-04-24T02:29:57;2.08;;;1.50;;
76380;SDS011;65202;52.520;10.528;2023-04-24T02:32:24;2.40;;;1.80;;
76380;SDS011;65202;52.520;10.528;2023-04-24T02:34:51;2.83;;;1.70;;
76380;SDS011;65202;52.520;10.528;2023-04-24T02:37:18;3.78;;;1.70;;
76380;SDS011;65202;52.520;10.528;2023-04-24T02:39:45;2.78;;;1.77;;
76380;SDS011;65202;52.520;10.528;2023-04-24T02:42:12;2.80;;;1.52;;
76380;SDS011;65202;52.520;10.528;2023-04-24T02:44:40;3.67;;;1.58;;
76380;SDS011;65202;52.520;10.528;2023-04-24T02:47:07;3.40;;;1.70;;
76380;SDS011;65202;52.520;10.528;2023-04-24T02:49:35;3.13;;;1.80;;
76380;SDS011;65202;52.520;10.528;2023-04-24T02:52:02;3.15;;;1.60;;
76380;SDS011;65202;52.520;10.528;2023-04-24T02:54:29;3.38;;;1.63;;
76380;SDS011;65202;52.520;10.528;2023-04-24T02:56:57;6.50;;;3.33;;
76380;SDS011;65202;52.520;10.528;2023-04-24T02:59:24;7.50;;;4.15;;
76380;SDS011;65202;52.520;10.528;2023-04-24T03:01:53;3.13;;;1.60;;
76380;SDS011;65202;52.520;10.528;2023-04-24T03:04:21;4.43;;;1.58;;
76380;SDS011;65202;52.520;10.528;2023-04-24T03:06:49;2.92;;;1.67;;
76380;SDS011;65202;52.520;10.528;2023-04-24T03:09:19;4.60;;;1.50;;
76380;SDS011;65202;52.520;10.528;2023-04-24T03:11:47;3.30;;;1.73;;
76380;SDS011;65202;52.520;10.528;2023-04-24T03:14:16;2.20;;;1.65;;
76380;SDS011;65202;52.520;10.528;2023-04-24T03:16:43;2.60;;;1.55;;
76380;SDS011;65202;52.520;10.528;2023-04-24T03:19:10;2.97;;;1.65;;
76380;SDS011;65202;52.520;10.528;2023-04-24T03:21:38;3.97;;;1.70;;
76380;SDS011;65202;52.520;10.528;2023-04-24T03:24:07;2.53;;;1.60;;
76380;SDS011;65202;52.520;10.528;2023-04-24T03:26:35;2.63;;;1.70;;
76380;SDS011;65202;52.520;10.528;2023-04-24T03:29:03;1.80;;;1.70;;
76380;SDS011;65202;52.520;10.528;2023-04-24T03:31:30;1.95;;;1.50;;
76380;SDS011;65202;52.520;10.528;2023-04-24T03:33:57;2.88;;;1.60;;
76380;SDS011;65202;52.520;10.528;2023-04-24T03:36:24;3.88;;;1.70;;
76380;SDS011;65202;52.520;10.528;2023-04-24T03:38:52;3.63;;;1.60;;
76380;SDS011;65202;52.520;10.528;2023-04-24T03:41:20;2.58;;;1.60;;
76380;SDS011;65202;52.520;10.528;2023-04-24T03:43:47;1.63;;;1.40;;
76380;SDS011;65202;52.520;10.528;2023-04-24T03:46:14;2.60;;;1.83;;
76380;SDS011;65202;52.520;10.528;2023-04-24T03:48:42;5.18;;;1.67;;
76380;SDS011;65202;52.520;10.528;2023-04-24T03:51:09;2.67;;;1.65;;
76380;SDS011;65202;52.520;10.528;2023-04-24T03:53:36;2.55;;;1.60;;
76380;SDS011;65202;52.520;10.528;2023-04-24T03:56:03;2.30;;;1.60;;
76380;SDS011;65202;52.520;10.528;2023-04-24T03:58:31;2.40;;;1.48;;
76380;SDS011;65202;52.520;10.528;2023-04-24T04:00:58;1.77;;;1.50;;
76380;SDS011;65202;52.520;10.528;2023-04-24T04:03:25;3.45;;;1.42;;
76380;SDS011;65202;52.520;10.528;2023-04-24T04:05:53;2.83;;;1.25;;
76380;SDS011;65202;52.520;10.528;2023-04-24T04:08:21;2.42;;;1.67;;
76380;SDS011;65202;52.520;10.528;2023-04-24T04:10:48;3.40;;;1.42;;
76380;SDS011;65202;52.520;10.528;2023-04-24T04:13:15;4.63;;;2.97;;
76380;SDS011;65202;52.520;10.528;2023-04-24T04:15:42;3.28;;;2.30;;
76380;SDS011;65202;52.520;10.528;2023-04-24T04:18:09;4.22;;;2.10;;
76380;SDS011;65202;52.520;10.528;2023-04-24T04:20:37;6.50;;;2.10;;
76380;SDS011;65202;52.520;10.528;2023-04-24T04:23:04;3.22;;;1.60;;
76380;SDS011;65202;52.520;10.528;2023-04-24T04:25:31;2.40;;;1.80;;
76380;SDS011;65202;52.520;10.528;2023-04-24T04:27:59;2.30;;;1.40;;
76380;SDS011;65202;52.520;10.528;2023-04-24T04:30:26;4.47;;;1.52;;
76380;SDS011;65202;52.520;10.528;2023-04-24T04:32:56;2.22;;;1.42;;
76380;SDS011;65202;52.520;10.528;2023-04-24T04:35:23;2.50;;;1.70;;
76380;SDS011;65202;52.520;10.528;2023-04-24T04:37:51;2.33;;;1.83;;
76380;SDS011;65202;52.520;10.528;2023-04-24T04:40:19;2.92;;;1.55;;
76380;SDS011;65202;52.520;10.528;2023-04-24T04:42:46;1.67;;;1.40;;
76380;SDS011;65202;52.520;10.528;2023-04-24T04:45:14;2.25;;;1.27;;
76380;SDS011;65202;52.520;10.528;2023-04-24T04:47:43;4.05;;;1.60;;
76380;SDS011;65202;52.520;10.528;2023-04-24T04:50:11;3.78;;;1.42;;
76380;SDS011;65202;52.520;10.528;2023-04-24T04:52:38;2.08;;;1.27;;
76380;SDS011;65202;52.520;10.528;2023-04-24T04:55:05;2.45;;;1.63;;
76380;SDS011;65202;52.520;10.528;2023-04-24T04:57:33;3.45;;;1.80;;
76380;SDS011;65202;52.520;10.528;2023-04-24T05:00:00;3.53;;;1.52;;
76380;SDS011;65202;52.520;10.528;2023-04-24T05:02:28;4.07;;;1.40;;
76380;SDS011;65202;52.520;10.528;2023-04-24T05:04:55;5.22;;;1.42;;
76380;SDS011;65202;52.520;10.528;2023-04-24T05:07:22;8.38;;;3.45;;
76380;SDS011;65202;52.520;10.528;2023-04-24T05:09:50;2.88;;;2.28;;
76380;SDS011;65202;52.520;10.528;2023-04-24T05:12:18;5.57;;;2.83;;
76380;SDS011;65202;52.520;10.528;2023-04-24T05:14:45;1.85;;;1.50;;
76380;SDS011;65202;52.520;10.528;2023-04-24T05:17:12;1.95;;;1.27;;
76380;SDS011;65202;52.520;10.528;2023-04-24T05:19:39;2.88;;;1.50;;
76380;SDS011;65202;52.520;10.528;2023-04-24T05:22:07;1.67;;;1.50;;
76380;SDS011;65202;52.520;10.528;2023-04-24T05:24:34;6.18;;;1.35;;
76380;SDS011;65202;52.520;10.528;2023-04-24T05:27:02;2.42;;;1.20;;
76380;SDS011;65202;52.520;10.528;2023-04-24T05:29:31;4.57;;;1.00;;
76380;SDS011;65202;52.520;10.528;2023-04-24T05:32:00;1.13;;;1.00;;
76380;SDS011;65202;52.520;10.528;2023-04-24T05:34:27;2.25;;;1.02;;
76380;SDS011;65202;52.520;10.528;2023-04-24T05:36:54;2.78;;;1.10;;
76380;SDS011;65202;52.520;10.528;2023-04-24T05:39:22;3.95;;;1.50;;
76380;SDS011;65202;52.520;10.528;2023-04-24T05:41:49;6.07;;;3.15;;
76380;SDS011;65202;52.520;10.528;2023-04-24T05:44:16;3.75;;;2.15;;
76380;SDS011;65202;52.520;10.528;2023-04-24T05:46:43;3.30;;;1.20;;
76380;SDS011;65202;52.520;10.528;2023-04-24T05:49:10;1.95;;;1.48;;
76380;SDS011;65202;52.520;10.528;2023-04-24T05:51:38;2.80;;;1.55;;
76380;SDS011;65202;52.520;10.528;2023-04-24T05:54:06;7.38;;;1.70;;
76380;SDS011;65202;52.520;10.528;2023-04-24T05:56:33;2.92;;;1.25;;
76380;SDS011;65202;52.520;10.528;2023-04-24T05:59:00;2.03;;;1.27;;
76380;SDS011;65202;52.520;10.528;2023-04-24T06:01:28;3.28;;;1.15;;
76380;SDS011;65202;52.520;10.528;2023-04-24T06:03:55;3.28;;;1.50;;
76380;SDS011;65202;52.520;10.528;2023-04-24T06:06:23;2.88;;;1.30;;
76380;SDS011;65202;52.520;10.528;2023-04-24T06:08:51;2.97;;;1.40;;
76380;SDS011;65202;52.520;10.528;2023-04-24T06:11:18;3.13;;;1.52;;
76380;SDS011;65202;52.520;10.528;2023-04-24T06:13:45;2.20;;;1.50;;
76380;SDS011;65202;52.520;10.528;2023-04-24T06:16:12;3.80;;;1.70;;
76380;SDS011;65202;52.520;10.528;2023-04-24T06:18:40;3.75;;;1.65;;
76380;SDS011;65202;52.520;10.528;2023-04-24T06:21:07;2.85;;;1.60;;
76380;SDS011;65202;52.520;10.528;2023-04-24T06:23:34;1.60;;;1.40;;
76380;SDS011;65202;52.520;10.528;2023-04-24T06:26:01;4.22;;;1.50;;
76380;SDS011;65202;52.520;10.528;2023-04-24T06:28:28;2.45;;;1.73;;
76380;SDS011;65202;52.520;10.528;2023-04-24T06:30:56;2.78;;;1.60;;
76380;SDS011;65202;52.520;10.528;2023-04-24T06:33:23;4.95;;;1.92;;
76380;SDS011;65202;52.520;10.528;2023-04-24T06:35:50;3.40;;;1.50;;
76380;SDS011;65202;52.520;10.528;2023-04-24T06:38:17;3.13;;;1.67;;
76380;SDS011;65202;52.520;10.528;2023-04-24T06:40:44;3.45;;;2.50;;
76380;SDS011;65202;52.520;10.528;2023-04-24T06:43:12;7.28;;;1.80;;
76380;SDS011;65202;52.520;10.528;2023-04-24T06:45:39;3.38;;;1.58;;
76380;SDS011;65202;52.520;10.528;2023-04-24T06:48:06;2.30;;;1.30;;
76380;SDS011;65202;52.520;10.528;2023-04-24T06:50:34;2.33;;;1.40;;
76380;SDS011;65202;52.520;10.528;2023-04-24T06:53:02;3.47;;;1.60;;
76380;SDS011;65202;52.520;10.528;2023-04-24T06:55:29;7.00;;;1.70;;
76380;SDS011;65202;52.520;10.528;2023-04-24T06:57:56;3.28;;;1.65;;
76380;SDS011;65202;52.520;10.528;2023-04-24T07:00:23;2.97;;;1.60;;
76380;SDS011;65202;52.520;10.528;2023-04-24T07:02:51;2.70;;;1.00;;
76380;SDS011;65202;52.520;10.528;2023-04-24T07:05:18;3.58;;;1.30;;
76380;SDS011;65202;52.520;10.528;2023-04-24T07:07:48;3.22;;;1.40;;
76380;SDS011;65202;52.520;10.528;2023-04-24T07:10:17;1.45;;;1.05;;
76380;SDS011;65202;52.520;10.528;2023-04-24T07:12:44;1.05;;;0.90;;
76380;SDS011;65202;52.520;10.528;2023-04-24T07:15:12;3.42;;;1.10;;
76380;SDS011;65202;52.520;10.528;2023-04-24T07:17:39;2.15;;;0.82;;
76380;SDS011;65202;52.520;10.528;2023-04-24T07:20:10;3.45;;;0.90;;
76380;SDS011;65202;52.520;10.528;2023-04-24T07:22:38;1.67;;;0.90;;
76380;SDS011;65202;52.520;10.528;2023-04-24T07:25:06;2.95;;;1.00;;
76380;SDS011;65202;52.520;10.528;2023-04-24T07:27:35;2.80;;;0.90;;
76380;SDS011;65202;52.520;10.528;2023-04-24T07:30:03;1.77;;;1.08;;
76380;SDS011;65202;52.520;10.528;2023-04-24T07:32:31;1.85;;;0.90;;
76380;SDS011;65202;52.520;10.528;2023-04-24T07:34:58;1.67;;;1.13;;
76380;SDS011;65202;52.520;10.528;2023-04-24T07:37:26;3.65;;;1.63;;
76380;SDS011;65202;52.520;10.528;2023-04-24T07:39:55;5.00;;;1.50;;
76380;SDS011;65202;52.520;10.528;2023-04-24T07:42:22;2.58;;;1.98;;
76380;SDS011;65202;52.520;10.528;2023-04-24T07:44:49;2.22;;;2.03;;
76380;SDS011;65202;52.520;10.528;2023-04-24T07:47:17;2.28;;;1.90;;
76380;SDS011;65202;52.520;10.528;2023-04-24T07:49:45;4.00;;;2.33;;
76380;SDS011;65202;52.520;10.528;2023-04-24T07:52:12;4.05;;;2.10;;
76380;SDS011;65202;52.520;10.528;2023-04-24T07:54:39;6.82;;;2.25;;
76380;SDS011;65202;52.520;10.528;2023-04-24T07:57:06;3.33;;;2.13;;
76380;SDS011;65202;52.520;10.528;2023-04-24T07:59:34;20.55;;;10.57;;
76380;SDS011;65202;52.520;10.528;2023-04-24T08:02:02;3.50;;;2.50;;
76380;SDS011;65202;52.520;10.528;2023-04-24T08:04:29;7.78;;;2.40;;
76380;SDS011;65202;52.520;10.528;2023-04-24T08:06:56;4.00;;;2.10;;
76380;SDS011;65202;52.520;10.528;2023-04-24T08:09:23;2.92;;;2.22;;
76380;SDS011;65202;52.520;10.528;2023-04-24T08:11:53;3.28;;;2.20;;
76380;SDS011;65202;52.520;10.528;2023-04-24T08:14:20;2.90;;;2.20;;
76380;SDS011;65202;52.520;10.528;2023-04-24T08:16:47;4.53;;;2.38;;
76380;SDS011;65202;52.520;10.528;2023-04-24T08:19:15;2.63;;;2.40;;
76380;SDS011;65202;52.520;10.528;2023-04-24T08:21:42;2.70;;;2.28;;
76380;SDS011;65202;52.520;10.528;2023-04-24T08:24:09;4.32;;;2.33;;
76380;SDS011;65202;52.520;10.528;2023-04-24T08:26:36;6.20;;;2.95;;
76380;SDS011;65202;52.520;10.528;2023-04-24T08:29:04;2.97;;;2.20;;
76380;SDS011;65202;52.520;10.528;2023-04-24T08:31:31;3.60;;;2.30;;
76380;SDS011;65202;52.520;10.528;2023-04-24T08:33:59;3.97;;;2.50;;
76380;SDS011;65202;52.520;10.528;2023-04-24T08:36:27;6.07;;;3.67;;
76380;SDS011;65202;52.520;10.528;2023-04-24T08:39:12;4.93;;;3.85;;
76380;SDS011;65202;52.520;10.528;2023-04-24T08:41:39;7.32;;;4.18;;
76380;SDS011;65202;52.520;10.528;2023-04-24T08:44:09;5.85;;;4.20;;
76380;SDS011;65202;52.520;10.528;2023-04-24T08:46:39;5.50;;;4.50;;
76380;SDS011;65202;52.520;10.528;2023-04-24T08:49:07;6.68;;;4.47;;
76380;SDS011;65202;52.520;10.528;2023-04-24T08:51:36;6.00;;;4.90;;
76380;SDS011;65202;52.520;10.528;2023-04-24T08:54:04;8.05;;;5.78;;
76380;SDS011;65202;52.520;10.528;2023-04-24T08:56:34;9.00;;;5.40;;
76380;SDS011;65202;52.520;10.528;2023-04-24T08:59:06;7.53;;;5.32;;
76380;SDS011;65202;52.520;10.528;2023-04-24T09:01:33;12.27;;;8.50;;
76380;SDS011;65202;52.520;10.528;2023-04-24T09:04:02;6.18;;;4.88;;
76380;SDS011;65202;52.520;10.528;2023-04-24T09:06:31;8.43;;;4.93;;
76380;SDS011;65202;52.520;10.528;2023-04-24T09:09:00;5.47;;;4.93;;
76380;SDS011;65202;52.520;10.528;2023-04-24T09:11:30;8.25;;;5.47;;
76380;SDS011;65202;52.520;10.528;2023-04-24T09:13:59;6.72;;;4.97;;
76380;SDS011;65202;52.520;10.528;2023-04-24T09:16:28;6.22;;;5.07;;
76380;SDS011;65202;52.520;10.528;2023-04-24T09:18:56;6.22;;;5.40;;
76380;SDS011;65202;52.520;10.528;2023-04-24T09:21:23;8.35;;;5.30;;
76380;SDS011;65202;52.520;10.528;2023-04-24T09:23:57;7.72;;;4.68;;
76380;SDS011;65202;52.520;10.528;2023-04-24T09:26:31;8.57;;;5.72;;
76380;SDS011;65202;52.520;10.528;2023-04-24T09:28:59;7.00;;;5.60;;
76380;SDS011;65202;52.520;10.528;2023-04-24T09:31:28;8.73;;;6.22;;
76380;SDS011;65202;52.520;10.528;2023-04-24T09:33:58;8.50;;;5.93;;
76380;SDS011;65202;52.520;10.528;2023-04-24T09:39:05;7.93;;;5.55;;
76380;SDS011;65202;52.520;10.528;2023-04-24T09:41:44;9.13;;;6.10;;
76380;SDS011;65202;52.520;10.528;2023-04-24T09:44:20;6.72;;;5.60;;
76380;SDS011;65202;52.520;10.528;2023-04-24T09:46:50;6.95;;;6.25;;
76380;SDS011;65202;52.520;10.528;2023-04-24T09:49:22;7.03;;;6.30;;
76380;SDS011;65202;52.520;10.528;2023-04-24T09:52:07;6.95;;;6.25;;
76380;SDS011;65202;52.520;10.528;2023-04-24T09:54:37;6.22;;;5.20;;
76380;SDS011;65202;52.520;10.528;2023-04-24T09:57:09;7.28;;;5.53;;
76380;SDS011;65202;52.520;10.528;2023-04-24T09:59:41;7.65;;;5.40;;
76380;SDS011;65202;52.520;10.528;2023-04-24T10:02:19;14.13;;;9.57;;
76380;SDS011;65202;52.520;10.528;2023-04-24T10:05:05;6.88;;;5.22;;
76380;SDS011;65202;52.520;10.528;2023-04-24T10:07:33;5.38;;;4.88;;
76380;SDS011;65202;52.520;10.528;2023-04-24T10:10:00;10.20;;;5.50;;
76380;SDS011;65202;52.520;10.528;2023-04-24T10:12:28;5.32;;;4.82;;
76380;SDS011;65202;52.520;10.528;2023-04-24T10:14:57;7.40;;;5.75;;
76380;SDS011;65202;52.520;10.528;2023-04-24T10:17:25;7.35;;;5.88;;
76380;SDS011;65202;52.520;10.528;2023-04-24T10:19:55;6.43;;;5.78;;
76380;SDS011;65202;52.520;10.528;2023-04-24T10:22:23;8.27;;;5.75;;
76380;SDS011;65202;52.520;10.528;2023-04-24T10:24:51;7.70;;;5.45;;
76380;SDS011;65202;52.520;10.528;2023-04-24T10:27:19;7.05;;;6.05;;
76380;SDS011;65202;52.520;10.528;2023-04-24T10:29:48;7.70;;;6.57;;
76380;SDS011;65202;52.520;10.528;2023-04-24T10:32:19;10.73;;;6.85;;
76380;SDS011;65202;52.520;10.528;2023-04-24T10:34:47;7.10;;;6.32;;
76380;SDS011;65202;52.520;10.528;2023-04-24T10:37:14;9.65;;;5.65;;
76380;SDS011;65202;52.520;10.528;2023-04-24T10:39:42;9.60;;;5.90;;
76380;SDS011;65202;52.520;10.528;2023-04-24T10:42:15;6.18;;;5.28;;
76380;SDS011;65202;52.520;10.528;2023-04-24T10:44:43;5.75;;;4.70;;
76380;SDS011;65202;52.520;10.528;2023-04-24T10:47:14;5.38;;;4.22;;
76380;SDS011;65202;52.520;10.528;2023-04-24T10:49:42;5.10;;;4.53;;
76380;SDS011;65202;52.520;10.528;2023-04-24T10:52:09;4.60;;;4.07;;
76380;SDS011;65202;52.520;10.528;2023-04-24T10:59:48;5.70;;;3.20;;
76380;SDS011;65202;52.520;10.528;2023-04-24T11:02:17;6.03;;;3.65;;
76380;SDS011;65202;52.520;10.528;2023-04-24T11:05:05;3.90;;;2.90;;
76380;SDS011;65202;52.520;10.528;2023-04-24T11:10:46;3.47;;;3.08;;
76380;SDS011;65202;52.520;10.528;2023-04-24T11:13:21;3.60;;;2.88;;
76380;SDS011;65202;52.520;10.528;2023-04-24T11:19:00;2.70;;;2.50;;
76380;SDS011;65202;52.520;10.528;2023-04-24T11:21:42;3.80;;;2.80;;
76380;SDS011;65202;52.520;10.528;2023-04-24T11:27:15;7.20;;;2.40;;
76380;SDS011;65202;52.520;10.528;2023-04-24T11:29:48;2.30;;;2.10;;
76380;SDS011;65202;52.520;10.528;2023-04-24T11:34:58;3.45;;;2.10;;
76380;SDS011;65202;52.520;10.528;2023-04-24T11:37:48;3.15;;;2.33;;
76380;SDS011;65202;52.520;10.528;2023-04-24T11:40:38;3.15;;;2.10;;
76380;SDS011;65202;52.520;10.528;2023-04-24T11:43:06;3.20;;;2.70;;
76380;SDS011;65202;52.520;10.528;2023-04-24T11:45:34;3.00;;;2.10;;
76380;SDS011;65202;52.520;10.528;2023-04-24T11:48:02;2.95;;;2.30;;
76380;SDS011;65202;52.520;10.528;2023-04-24T11:50:30;4.25;;;2.40;;
76380;SDS011;65202;52.520;10.528;2023-04-24T11:52:57;4.55;;;2.78;;
76380;SDS011;65202;52.520;10.528;2023-04-24T11:55:27;5.00;;;3.35;;
76380;SDS011;65202;52.520;10.528;2023-04-24T11:57:56;3.97;;;2.33;;
76380;SDS011;65202;52.520;10.528;2023-04-24T12:00:30;3.55;;;2.78;;
76380;SDS011;65202;52.520;10.528;2023-04-24T12:03:07;6.50;;;2.92;;
76380;SDS011;65202;52.520;10.528;2023-04-24T12:05:39;4.18;;;2.50;;
76380;SDS011;65202;52.520;10.528;2023-04-24T12:08:07;4.93;;;2.60;;
76380;SDS011;65202;52.520;10.528;2023-04-24T12:10:34;4.45;;;2.95;;
76380;SDS011;65202;52.520;10.528;2023-04-24T12:13:02;6.50;;;2.42;;
76380;SDS011;65202;52.520;10.528;2023-04-24T12:15:30;3.10;;;2.80;;
76380;SDS011;65202;52.520;10.528;2023-04-24T12:17:57;2.47;;;2.20;;
76380;SDS011;65202;52.520;10.528;2023-04-24T12:20:26;7.18;;;2.30;;
76380;SDS011;65202;52.520;10.528;2023-04-24T12:22:58;3.28;;;2.40;;
76380;SDS011;65202;52.520;10.528;2023-04-24T12:25:28;3.60;;;2.10;;
76380;SDS011;65202;52.520;10.528;2023-04-24T12:30:34;3.47;;;2.30;;
76380;SDS011;65202;52.520;10.528;2023-04-24T12:33:11;3.33;;;1.80;;
76380;SDS011;65202;52.520;10.528;2023-04-24T12:35:39;2.90;;;1.88;;
76380;SDS011;65202;52.520;10.528;2023-04-24T12:38:08;3.05;;;1.90;;
76380;SDS011;65202;52.520;10.528;2023-04-24T12:40:42;7.72;;;5.07;;
76380;SDS011;65202;52.520;10.528;2023-04-24T12:43:17;2.95;;;2.25;;
76380;SDS011;65202;52.520;10.528;2023-04-24T12:45:49;5.00;;;3.20;;
76380;SDS011;65202;52.520;10.528;2023-04-24T12:48:16;3.38;;;2.53;;
76380;SDS011;65202;52.520;10.528;2023-04-24T12:50:43;10.98;;;5.28;;
76380;SDS011;65202;52.520;10.528;2023-04-24T12:53:13;4.00;;;3.13;;
76380;SDS011;65202;52.520;10.528;2023-04-24T12:55:41;4.15;;;3.00;;
76380;SDS011;65202;52.520;10.528;2023-04-24T12:58:08;2.65;;;2.00;;
76380;SDS011;65202;52.520;10.528;2023-04-24T13:00:36;2.58;;;1.90;;
76380;SDS011;65202;52.520;10.528;2023-04-24T13:03:04;6.75;;;4.05;;
76380;SDS011;65202;52.520;10.528;2023-04-24T13:05:32;7.00;;;2.35;;
76380;SDS011;65202;52.520;10.528;2023-04-24T13:08:00;4.13;;;2.00;;
76380;SDS011;65202;52.520;10.528;2023-04-24T13:10:27;1.63;;;1.42;;
76380;SDS011;65202;52.520;10.528;2023-04-24T13:12:54;2.33;;;1.92;;
76380;SDS011;65202;52.520;10.528;2023-04-24T13:15:21;2.08;;;1.60;;
76380;SDS011;65202;52.520;10.528;2023-04-24T13:17:49;1.60;;;1.50;;
76380;SDS011;65202;52.520;10.528;2023-04-24T13:20:17;2.80;;;1.80;;
76380;SDS011;65202;52.520;10.528;2023-04-24T13:22:44;3.42;;;2.40;;
76380;SDS011;65202;52.520;10.528;2023-04-24T13:25:11;2.53;;;2.33;;
76380;SDS011;65202;52.520;10.528;2023-04-24T13:27:39;2.90;;;2.10;;
76380;SDS011;65202;52.520;10.528;2023-04-24T13:30:06;2.22;;;2.03;;
76380;SDS011;65202;52.520;10.528;2023-04-24T13:32:35;2.65;;;1.17;;
76380;SDS011;65202;52.520;10.528;2023-04-24T13:35:03;3.83;;;2.13;;
76380;SDS011;65202;52.520;10.528;2023-04-24T13:37:31;4.15;;;2.65;;
76380;SDS011;65202;52.520;10.528;2023-04-24T13:39:58;0.80;;;0.80;;
76380;SDS011;65202;52.520;10.528;2023-04-24T13:42:25;1.13;;;0.85;;
76380;SDS011;65202;52.520;10.528;2023-04-24T13:44:52;0.80;;;0.80;;
76380;SDS011;65202;52.520;10.528;2023-04-24T13:47:20;1.25;;;1.00;;
76380;SDS011;65202;52.520;10.528;2023-04-24T13:49:47;1.77;;;1.15;;
76380;SDS011;65202;52.520;10.528;2023-04-24T13:52:15;1.40;;;1.30;;
76380;SDS011;65202;52.520;10.528;2023-04-24T13:54:42;2.45;;;2.25;;
76380;SDS011;65202;52.520;10.528;2023-04-24T13:57:09;3.78;;;2.00;;
76380;SDS011;65202;52.520;10.528;2023-04-24T13:59:37;1.80;;;1.70;;
76380;SDS011;65202;52.520;10.528;2023-04-24T14:02:04;1.90;;;1.80;;
76380;SDS011;65202;52.520;10.528;2023-04-24T14:04:32;6.35;;;2.47;;
76380;SDS011;65202;52.520;10.528;2023-04-24T14:06:59;2.90;;;2.60;;
76380;SDS011;65202;52.520;10.528;2023-04-24T14:09:27;2.72;;;2.40;;
76380;SDS011;65202;52.520;10.528;2023-04-24T14:11:54;2.58;;;2.33;;
76380;SDS011;65202;52.520;10.528;2023-04-24T14:14:21;2.28;;;2.08;;
76380;SDS011;65202;52.520;10.528;2023-04-24T14:16:48;1.80;;;1.70;;
76380;SDS011;65202;52.520;10.528;2023-04-24T14:19:15;2.13;;;1.92;;
76380;SDS011;65202;52.520;10.528;2023-04-24T14:21:42;1.90;;;1.80;;
76380;SDS011;65202;52.520;10.528;2023-04-24T14:24:10;4.18;;;1.83;;
76380;SDS011;65202;52.520;10.528;2023-04-24T14:26:37;3.58;;;1.70;;
76380;SDS011;65202;52.520;10.528;2023-04-24T14:29:04;1.50;;;1.40;;
76380;SDS011;65202;52.520;10.528;2023-04-24T14:31:41;2.70;;;1.50;;
76380;SDS011;65202;52.520;10.528;2023-04-24T14:34:09;3.85;;;1.55;;
76380;SDS011;65202;52.520;10.528;2023-04-24T14:36:36;2.58;;;1.40;;
76380;SDS011;65202;52.520;10.528;2023-04-24T14:39:03;1.48;;;1.38;;
76380;SDS011;65202;52.520;10.528;2023-04-24T14:41:33;8.52;;;4.35;;
76380;SDS011;65202;52.520;10.528;2023-04-24T14:44:02;2.70;;;1.40;;
76380;SDS011;65202;52.520;10.528;2023-04-24T14:46:31;1.38;;;1.27;;
76380;SDS011;65202;52.520;10.528;2023-04-24T14:48:58;2.13;;;1.30;;
76380;SDS011;65202;52.520;10.528;2023-04-24T14:51:26;1.17;;;1.10;;
76380;SDS011;65202;52.520;10.528;2023-04-24T14:53:53;1.02;;;1.02;;
76380;SDS011;65202;52.520;10.528;2023-04-24T14:56:20;1.08;;;0.88;;
76380;SDS011;65202;52.520;10.528;2023-04-24T14:58:48;1.05;;;0.93;;
76380;SDS011;65202;52.520;10.528;2023-04-24T15:01:15;1.00;;;1.00;;
76380;SDS011;65202;52.520;10.528;2023-04-24T15:03:43;2.22;;;1.42;;